createdAt,value
2023-01-19T00:00:18.167Z,23.40
2023-01-19T00:03:26.012Z,21.90
2023-01-19T00:06:14.310Z,22.40
2023-01-19T00:09:02.420Z,20.90
2023-01-19T00:11:50.844Z,24.10
2023-01-19T00:14:39.135Z,24.10
2023-01-19T00:17:27.380Z,21.20
2023-01-19T00:20:15.956Z,20.60
2023-01-19T00:23:04.947Z,19.80
2023-01-19T00:25:53.200Z,19.50
2023-01-19T00:28:41.009Z,20.60
2023-01-19T00:31:30.156Z,21.60
2023-01-19T00:34:18.177Z,21.20
2023-01-19T00:37:07.555Z,19.10
2023-01-19T00:39:55.755Z,19.60
2023-01-19T00:42:48.484Z,18.50
2023-01-19T00:45:36.794Z,21.70
2023-01-19T00:48:24.701Z,20.70
2023-01-19T00:51:12.485Z,21.40
2023-01-19T00:54:04.955Z,21.10
2023-01-19T00:56:52.719Z,20.60
2023-01-19T00:59:40.764Z,19.50
2023-01-19T01:02:28.861Z,20.60
2023-01-19T01:05:17.945Z,19.00
2023-01-19T01:08:06.207Z,18.40
2023-01-19T01:10:55.316Z,21.70
2023-01-19T01:13:43.039Z,18.90
2023-01-19T01:16:31.117Z,22.60
2023-01-19T01:19:30.945Z,23.80
2023-01-19T01:22:39.251Z,21.80
2023-01-19T01:25:28.881Z,20.30
2023-01-19T01:28:16.809Z,20.50
2023-01-19T01:31:04.907Z,20.20
2023-01-19T01:33:52.869Z,18.00
2023-01-19T01:36:40.918Z,18.80
2023-01-19T01:39:28.739Z,18.90
2023-01-19T01:42:20.143Z,19.70
2023-01-19T01:45:31.445Z,20.70
2023-01-19T01:48:27.336Z,20.80
2023-01-19T01:51:33.488Z,21.20
2023-01-19T01:54:31.892Z,21.30
2023-01-19T01:57:19.877Z,18.70
2023-01-19T02:00:09.353Z,17.30
2023-01-19T02:03:00.409Z,19.10
2023-01-19T02:05:49.342Z,16.90
2023-01-19T02:09:09.164Z,18.60
2023-01-19T02:12:15.993Z,17.80
2023-01-19T02:15:04.556Z,16.80
2023-01-19T02:17:52.632Z,16.70
2023-01-19T02:20:45.340Z,17.50
2023-01-19T02:23:49.186Z,19.70
2023-01-19T02:26:44.557Z,16.50
2023-01-19T02:29:34.060Z,17.60
2023-01-19T02:32:21.945Z,17.40
2023-01-19T02:35:11.961Z,16.00
2023-01-19T02:37:59.892Z,16.30
2023-01-19T02:40:48.853Z,18.50
2023-01-19T02:43:37.655Z,19.50
2023-01-19T02:46:25.960Z,21.40
2023-01-19T02:49:13.759Z,18.30
2023-01-19T02:52:01.854Z,17.20
2023-01-19T02:55:08.743Z,17.70
2023-01-19T02:58:34.182Z,15.00
2023-01-19T03:01:33.233Z,18.20
2023-01-19T03:04:27.644Z,20.90
2023-01-19T03:07:34.703Z,16.50
2023-01-19T03:11:02.090Z,14.70
2023-01-19T03:13:53.774Z,16.30
2023-01-19T03:16:48.850Z,15.70
2023-01-19T03:19:49.669Z,16.40
2023-01-19T03:22:37.847Z,15.70
2023-01-19T03:25:26.342Z,15.50
2023-01-19T03:28:17.965Z,14.80
2023-01-19T03:31:22.787Z,18.00
2023-01-19T03:34:15.276Z,15.90
2023-01-19T03:37:05.286Z,14.50
2023-01-19T03:39:53.472Z,15.50
2023-01-19T03:42:43.517Z,14.10
2023-01-19T03:45:34.688Z,14.40
2023-01-19T03:48:23.220Z,14.10
2023-01-19T03:51:12.103Z,14.30
2023-01-19T03:54:01.479Z,14.80
2023-01-19T03:56:49.660Z,15.70
2023-01-19T03:59:37.633Z,16.20
2023-01-19T04:02:25.383Z,13.10
2023-01-19T04:05:14.578Z,16.80
2023-01-19T04:08:02.177Z,12.60
2023-01-19T04:10:50.195Z,15.30
2023-01-19T04:13:38.474Z,13.40
2023-01-19T04:16:26.575Z,13.00
2023-01-19T04:19:14.479Z,16.10
2023-01-19T04:22:05.544Z,14.20
2023-01-19T04:24:53.573Z,15.50
2023-01-19T04:27:41.487Z,14.90
2023-01-19T04:30:29.251Z,17.00
2023-01-19T04:33:17.187Z,15.00
2023-01-19T04:36:05.693Z,13.40
2023-01-19T04:38:53.648Z,12.20
2023-01-19T04:41:41.200Z,11.00
2023-01-19T04:44:29.573Z,15.50
2023-01-19T04:47:17.705Z,12.20
2023-01-19T04:50:07.107Z,19.90
2023-01-19T04:52:55.058Z,14.00
2023-01-19T04:55:42.938Z,16.10
2023-01-19T04:58:30.944Z,14.60
2023-01-19T05:01:19.299Z,12.00
2023-01-19T05:04:07.974Z,13.10
2023-01-19T05:06:56.105Z,16.50
2023-01-19T05:09:44.103Z,13.60
2023-01-19T05:12:32.007Z,15.80
2023-01-19T05:15:20.146Z,14.30
2023-01-19T05:18:08.078Z,14.10
2023-01-19T05:20:56.120Z,15.90
2023-01-19T05:23:44.769Z,16.70
2023-01-19T05:26:32.522Z,13.60
2023-01-19T05:29:20.355Z,15.50
2023-01-19T05:32:08.380Z,17.10
2023-01-19T05:34:56.503Z,12.60
2023-01-19T05:37:44.633Z,14.80
2023-01-19T05:40:32.764Z,12.30
2023-01-19T05:43:20.476Z,15.00
2023-01-19T05:46:08.524Z,15.80
2023-01-19T05:48:58.664Z,11.60
2023-01-19T05:51:54.448Z,15.50
2023-01-19T05:54:51.150Z,15.30
2023-01-19T05:57:44.062Z,13.20
2023-01-19T06:00:31.805Z,12.30
2023-01-19T06:03:20.114Z,10.80
2023-01-19T06:06:08.167Z,12.30
2023-01-19T06:08:55.869Z,12.30
2023-01-19T06:11:45.273Z,16.10
2023-01-19T06:14:32.893Z,18.00
2023-01-19T06:17:20.839Z,17.20
2023-01-19T06:20:10.199Z,28.20
2023-01-19T06:22:58.882Z,22.60
2023-01-19T06:25:49.112Z,22.40
2023-01-19T06:28:37.057Z,24.80
2023-01-19T06:31:25.062Z,25.00
2023-01-19T06:34:12.677Z,25.80
2023-01-19T06:37:00.361Z,25.70
2023-01-19T06:39:48.031Z,29.50
2023-01-19T06:42:36.010Z,32.20
2023-01-19T06:45:24.125Z,29.80
2023-01-19T06:48:13.410Z,33.10
2023-01-19T06:51:01.353Z,35.10
2023-01-19T06:53:49.487Z,30.70
2023-01-19T06:56:37.210Z,33.40
2023-01-19T06:59:26.050Z,33.30
2023-01-19T07:02:27.690Z,28.60
2023-01-19T07:05:16.697Z,29.30
2023-01-19T07:08:04.979Z,29.40
2023-01-19T07:11:23.208Z,35.10
2023-01-19T07:14:01.585Z,29.20
2023-01-19T07:16:49.326Z,26.70
2023-01-19T07:19:37.443Z,23.40
2023-01-19T07:22:26.110Z,21.40
2023-01-19T07:25:15.420Z,23.30
2023-01-19T07:28:04.575Z,31.40
2023-01-19T07:30:54.689Z,21.30
2023-01-19T07:33:42.805Z,19.10
2023-01-19T07:36:31.039Z,20.90
2023-01-19T07:39:19.814Z,18.90
2023-01-19T07:42:07.590Z,18.60
2023-01-19T07:44:58.666Z,28.40
2023-01-19T07:47:49.879Z,26.20
2023-01-19T07:50:37.917Z,20.30
2023-01-19T07:53:25.773Z,25.20
2023-01-19T07:56:14.761Z,26.40
2023-01-19T07:59:02.636Z,24.60
2023-01-19T08:01:51.131Z,22.60
2023-01-19T08:04:41.847Z,21.40
2023-01-19T08:07:29.864Z,21.20
2023-01-19T08:10:23.034Z,25.40
2023-01-19T08:13:10.779Z,20.60
2023-01-19T08:15:58.706Z,30.90
2023-01-19T08:18:46.827Z,28.30
2023-01-19T08:21:36.486Z,25.30
2023-01-19T08:24:29.117Z,32.30
2023-01-19T08:27:17.190Z,28.20
2023-01-19T08:30:05.722Z,30.20
2023-01-19T08:32:58.383Z,30.40
2023-01-19T08:35:50.562Z,33.00
2023-01-19T08:38:41.364Z,29.50
2023-01-19T08:41:29.066Z,28.10
2023-01-19T08:44:17.168Z,28.40
2023-01-19T08:47:05.068Z,26.70
2023-01-19T08:49:53.028Z,31.30
2023-01-19T08:52:40.786Z,30.80
2023-01-19T08:55:30.303Z,28.00
2023-01-19T08:58:18.383Z,28.70
2023-01-19T09:01:08.726Z,29.30
2023-01-19T09:03:57.119Z,34.90
2023-01-19T09:06:44.818Z,34.30
2023-01-19T09:09:32.806Z,33.60
2023-01-19T09:12:20.292Z,34.10
2023-01-19T09:15:10.855Z,31.70
2023-01-19T09:17:59.169Z,31.90
2023-01-19T09:20:50.336Z,31.50
2023-01-19T09:23:38.543Z,32.30
2023-01-19T09:26:27.126Z,27.40
2023-01-19T09:29:14.663Z,27.30
2023-01-19T09:32:03.063Z,33.50
2023-01-19T09:34:51.228Z,23.00
2023-01-19T09:37:39.437Z,29.60
2023-01-19T09:40:28.593Z,30.20
2023-01-19T09:43:39.521Z,28.50
2023-01-19T09:46:40.329Z,28.90
2023-01-19T09:49:40.989Z,30.40
2023-01-19T09:52:33.123Z,25.60
2023-01-19T09:55:26.355Z,28.10
2023-01-19T09:58:19.149Z,28.30
2023-01-19T10:01:35.280Z,28.70
2023-01-19T10:05:12.397Z,27.40
2023-01-19T10:08:52.276Z,25.60
2023-01-19T10:12:08.512Z,26.00
2023-01-19T10:15:21.504Z,23.40
2023-01-19T10:18:20.200Z,26.70
2023-01-19T10:21:15.711Z,23.00
2023-01-19T10:24:27.634Z,26.10
2023-01-19T10:27:28.375Z,23.90
2023-01-19T10:30:24.697Z,23.70
2023-01-19T10:33:14.300Z,22.60
2023-01-19T10:36:28.855Z,18.80
2023-01-19T10:39:19.220Z,18.40
2023-01-19T10:42:15.398Z,15.10
2023-01-19T10:45:04.967Z,14.50
2023-01-19T10:47:54.790Z,17.30
2023-01-19T10:50:42.997Z,13.40
2023-01-19T10:53:31.311Z,15.50
2023-01-19T10:56:35.174Z,16.80
2023-01-19T10:59:46.685Z,14.00
2023-01-19T11:02:35.026Z,14.30
2023-01-19T11:05:30.510Z,15.90
2023-01-19T11:08:30.953Z,12.70
2023-01-19T11:11:24.744Z,14.90
2023-01-19T11:14:24.513Z,12.80
2023-01-19T11:17:23.472Z,13.20
2023-01-19T11:20:22.318Z,13.70
2023-01-19T11:23:23.497Z,13.90
2023-01-19T11:26:34.896Z,11.30
2023-01-19T11:29:27.433Z,12.30
2023-01-19T11:32:22.652Z,10.50
2023-01-19T11:35:40.483Z,10.80
2023-01-19T11:38:28.454Z,11.50
2023-01-19T11:41:20.738Z,12.10
2023-01-19T11:44:43.550Z,12.60
2023-01-19T11:47:39.951Z,11.50
2023-01-19T11:50:41.673Z,13.70
2023-01-19T11:53:34.488Z,13.50
2023-01-19T11:56:29.396Z,13.10
2023-01-19T11:59:18.316Z,11.80
2023-01-19T12:02:43.639Z,12.30
2023-01-19T12:05:35.333Z,12.10
2023-01-19T12:08:30.894Z,10.10
2023-01-19T12:11:31.598Z,11.60
2023-01-19T12:15:04.409Z,11.30
2023-01-19T12:17:57.891Z,12.00
2023-01-19T12:20:55.632Z,10.70
2023-01-19T12:24:16.459Z,15.10
2023-01-19T12:27:27.348Z,13.50
2023-01-19T12:30:29.190Z,12.80
2023-01-19T12:33:34.531Z,11.90
2023-01-19T12:36:35.484Z,11.90
2023-01-19T12:39:25.283Z,11.90
2023-01-19T12:42:20.471Z,10.30
2023-01-19T12:45:20.924Z,12.20
2023-01-19T12:48:25.392Z,11.50
2023-01-19T12:51:25.155Z,9.60
2023-01-19T12:54:32.603Z,9.60
2023-01-19T12:58:02.744Z,8.70
2023-01-19T13:01:16.664Z,8.70
2023-01-19T13:04:27.283Z,10.60
2023-01-19T13:07:18.116Z,8.80
2023-01-19T13:10:55.507Z,8.50
2023-01-19T13:14:05.582Z,10.20
2023-01-19T13:17:00.877Z,8.40
2023-01-19T13:19:57.501Z,9.60
2023-01-19T13:22:52.658Z,9.20
2023-01-19T13:25:47.434Z,9.70
2023-01-19T13:28:41.186Z,11.10
2023-01-19T13:31:36.187Z,10.50
2023-01-19T13:34:27.951Z,9.60
2023-01-19T13:37:37.422Z,9.60
2023-01-19T13:40:36.330Z,9.30
2023-01-19T13:43:34.803Z,7.90
2023-01-19T13:46:23.288Z,9.10
2023-01-19T13:49:29.019Z,12.00
2023-01-19T13:52:25.984Z,10.60
2023-01-19T13:55:15.791Z,9.90
2023-01-19T13:58:03.757Z,10.60
2023-01-19T14:00:51.559Z,10.40
2023-01-19T14:03:40.998Z,9.90
2023-01-19T14:06:34.202Z,11.30
2023-01-19T14:09:22.761Z,12.40
2023-01-19T14:12:17.654Z,9.80
2023-01-19T14:15:13.138Z,11.30
2023-01-19T14:18:19.460Z,9.90
2023-01-19T14:21:14.746Z,10.60
2023-01-19T14:24:20.189Z,10.30
2023-01-19T14:27:19.360Z,11.80
2023-01-19T14:30:22.169Z,10.60
2023-01-19T14:33:42.036Z,10.00
2023-01-19T14:36:38.241Z,11.80
2023-01-19T14:39:33.442Z,11.30
2023-01-19T14:42:50.684Z,14.50
2023-01-19T14:45:46.938Z,11.10
2023-01-19T14:48:35.489Z,11.20
2023-01-19T14:51:26.700Z,14.40
2023-01-19T14:54:19.465Z,12.90
2023-01-19T14:57:13.800Z,13.90
2023-01-19T15:00:11.412Z,13.50
2023-01-19T15:02:59.531Z,16.00
2023-01-19T15:05:49.171Z,14.30
2023-01-19T15:08:39.396Z,14.10
2023-01-19T15:11:34.162Z,15.40
2023-01-19T15:14:22.433Z,13.80
2023-01-19T15:17:27.494Z,21.50
2023-01-19T15:20:20.731Z,14.30
2023-01-19T15:23:11.666Z,15.50
2023-01-19T15:26:03.216Z,17.20
2023-01-19T15:28:51.529Z,14.10
2023-01-19T15:31:39.499Z,14.20
2023-01-19T15:34:27.688Z,13.50
2023-01-19T15:37:16.037Z,11.40
2023-01-19T15:40:04.444Z,18.50
2023-01-19T15:42:55.004Z,15.90
2023-01-19T15:46:16.453Z,16.30
2023-01-19T15:49:11.874Z,13.20
2023-01-19T15:52:02.682Z,15.20
2023-01-19T15:54:50.673Z,14.10
2023-01-19T15:57:38.546Z,14.50
2023-01-19T16:00:26.407Z,18.40
2023-01-19T16:03:14.372Z,21.60
2023-01-19T16:06:02.469Z,22.80
2023-01-19T16:08:50.370Z,17.60
2023-01-19T16:11:38.434Z,19.10
2023-01-19T16:14:26.437Z,19.10
2023-01-19T16:17:14.450Z,17.60
2023-01-19T16:20:05.093Z,22.40
2023-01-19T16:22:54.995Z,26.50
2023-01-19T16:25:45.245Z,22.40
2023-01-19T16:28:35.690Z,26.70
2023-01-19T16:31:23.902Z,21.80
2023-01-19T16:34:12.028Z,23.00
2023-01-19T16:37:00.377Z,22.50
2023-01-19T16:39:50.950Z,22.50
2023-01-19T16:42:40.881Z,23.30
2023-01-19T16:45:28.877Z,28.70
2023-01-19T16:48:21.363Z,29.40
2023-01-19T16:51:09.258Z,28.20
2023-01-19T16:53:57.508Z,32.00
2023-01-19T16:56:46.290Z,29.80
2023-01-19T16:59:34.381Z,33.50
2023-01-19T17:02:22.014Z,31.40
2023-01-19T17:05:10.543Z,32.70
2023-01-19T17:07:58.183Z,30.40
2023-01-19T17:10:48.204Z,37.10
2023-01-19T17:13:36.036Z,34.90
2023-01-19T17:16:25.312Z,36.80
2023-01-19T17:19:17.709Z,38.80
2023-01-19T17:22:06.595Z,29.30
2023-01-19T17:24:54.807Z,35.10
2023-01-19T17:27:42.837Z,36.90
2023-01-19T17:30:31.290Z,42.40
2023-01-19T17:33:23.885Z,39.60
2023-01-19T17:36:16.186Z,42.20
2023-01-19T17:39:11.598Z,39.60
2023-01-19T17:41:59.599Z,42.40
2023-01-19T17:44:47.576Z,40.80
2023-01-19T17:47:35.599Z,48.40
2023-01-19T17:50:23.617Z,43.70
2023-01-19T17:53:11.939Z,39.40
2023-01-19T17:56:30.327Z,40.10
2023-01-19T17:59:18.755Z,44.40
2023-01-19T18:02:08.639Z,43.50
2023-01-19T18:04:58.582Z,51.70
2023-01-19T18:07:47.966Z,42.40
2023-01-19T18:10:35.860Z,42.80
2023-01-19T18:13:24.447Z,45.50
2023-01-19T18:16:16.838Z,48.80
2023-01-19T18:19:05.046Z,43.00
2023-01-19T18:21:53.214Z,41.30
2023-01-19T18:24:41.054Z,49.00
2023-01-19T18:27:29.433Z,47.70
2023-01-19T18:30:18.384Z,52.90
2023-01-19T18:33:06.726Z,52.10
2023-01-19T18:35:55.177Z,53.10
2023-01-19T18:38:43.617Z,57.80
2023-01-19T18:41:31.880Z,52.20
2023-01-19T18:44:19.568Z,50.80
2023-01-19T18:47:07.640Z,57.50
2023-01-19T18:49:55.594Z,56.40
2023-01-19T18:52:47.855Z,56.40
2023-01-19T18:55:36.753Z,49.50
2023-01-19T18:58:28.639Z,55.30
2023-01-19T19:01:33.106Z,57.40
2023-01-19T19:04:21.342Z,50.10
2023-01-19T19:07:09.800Z,59.50
2023-01-19T19:09:57.536Z,51.00
2023-01-19T19:12:45.621Z,63.30
2023-01-19T19:15:34.395Z,58.70
2023-01-19T19:18:22.844Z,56.00
2023-01-19T19:21:12.710Z,64.80
2023-01-19T19:24:00.671Z,57.50
2023-01-19T19:26:48.985Z,58.70
2023-01-19T19:29:36.591Z,63.30
2023-01-19T19:32:24.681Z,58.00
2023-01-19T19:35:12.696Z,61.50
2023-01-19T19:38:00.890Z,58.80
2023-01-19T19:40:48.780Z,71.10
2023-01-19T19:43:37.864Z,59.70
2023-01-19T19:46:28.024Z,69.30
2023-01-19T19:49:21.382Z,65.70
2023-01-19T19:52:09.085Z,54.50
2023-01-19T19:54:57.218Z,56.50
2023-01-19T19:57:45.665Z,60.60
2023-01-19T20:00:33.561Z,60.40
2023-01-19T20:03:21.882Z,62.40
2023-01-19T20:06:14.045Z,59.10
2023-01-19T20:09:02.150Z,68.50
2023-01-19T20:11:50.234Z,69.70
2023-01-19T20:14:38.670Z,66.30
2023-01-19T20:17:36.140Z,70.90
2023-01-19T20:20:24.999Z,78.60
2023-01-19T20:23:13.022Z,66.50
2023-01-19T20:26:06.269Z,68.00
2023-01-19T20:28:59.793Z,58.00
2023-01-19T20:31:53.858Z,64.00
2023-01-19T20:34:42.023Z,66.00
2023-01-19T20:37:30.255Z,66.30
2023-01-19T20:40:18.504Z,73.60
2023-01-19T20:43:07.826Z,72.70
2023-01-19T20:45:56.320Z,62.50
2023-01-19T20:48:45.885Z,65.90
2023-01-19T20:51:35.662Z,60.30
2023-01-19T20:54:27.467Z,52.50
2023-01-19T20:57:15.413Z,59.60
2023-01-19T21:00:03.799Z,52.40
2023-01-19T21:02:51.988Z,60.60
2023-01-19T21:05:40.040Z,58.60
2023-01-19T21:08:27.727Z,62.00
2023-01-19T21:11:21.232Z,55.00
2023-01-19T21:14:09.501Z,55.60
2023-01-19T21:16:58.550Z,56.70
2023-01-19T21:19:46.497Z,54.90
2023-01-19T21:22:34.613Z,52.90
2023-01-19T21:25:22.946Z,45.10
2023-01-19T21:28:10.912Z,51.10
2023-01-19T21:31:07.369Z,48.10
2023-01-19T21:33:56.241Z,47.20
2023-01-19T21:36:44.794Z,45.80
2023-01-19T21:39:32.512Z,45.80
2023-01-19T21:42:20.713Z,40.40
2023-01-19T21:45:09.065Z,46.50
2023-01-19T21:47:57.132Z,46.50
2023-01-19T21:50:45.727Z,43.30
2023-01-19T21:53:33.690Z,43.10
2023-01-19T21:56:22.596Z,47.80
2023-01-19T21:59:16.032Z,44.50
2023-01-19T22:02:04.631Z,47.10
2023-01-19T22:04:52.815Z,49.40
2023-01-19T22:07:40.830Z,41.40
2023-01-19T22:10:28.753Z,41.30
2023-01-19T22:13:16.470Z,35.20
2023-01-19T22:16:08.962Z,38.50
2023-01-19T22:19:02.382Z,34.60
2023-01-19T22:21:50.921Z,30.80
2023-01-19T22:24:39.423Z,33.90
2023-01-19T22:27:28.609Z,35.60
2023-01-19T22:30:17.880Z,34.40
2023-01-19T22:33:05.638Z,30.20
2023-01-19T22:35:53.787Z,27.60
2023-01-19T22:38:42.639Z,28.10
2023-01-19T22:41:35.855Z,24.80
2023-01-19T22:44:23.838Z,22.80
2023-01-19T22:47:12.181Z,23.40
2023-01-19T22:49:59.934Z,26.70
2023-01-19T22:52:47.540Z,23.70
2023-01-19T22:55:35.911Z,26.20
2023-01-19T22:58:23.861Z,24.50
2023-01-19T23:01:15.651Z,24.70
2023-01-19T23:04:04.709Z,24.60
2023-01-19T23:06:52.613Z,29.50
2023-01-19T23:09:40.329Z,25.60
2023-01-19T23:12:28.370Z,26.30
2023-01-19T23:15:16.283Z,25.50
2023-01-19T23:18:04.343Z,26.30
2023-01-19T23:20:52.516Z,28.70
2023-01-19T23:23:41.195Z,28.60
2023-01-19T23:26:38.320Z,23.40
2023-01-19T23:29:26.322Z,22.00
2023-01-19T23:32:14.604Z,30.20
2023-01-19T23:35:02.596Z,23.10
2023-01-19T23:37:50.812Z,27.60
2023-01-19T23:40:38.696Z,27.00
2023-01-19T23:43:26.907Z,27.70
2023-01-19T23:46:16.933Z,25.40
2023-01-19T23:49:05.122Z,22.50
2023-01-19T23:51:52.923Z,26.90
2023-01-19T23:54:40.894Z,25.50
2023-01-19T23:57:28.935Z,29.10
